sensor_id;sensor_type;location;lat;lon;timestamp;P1;durP1;ratioP1;P2;durP2;ratioP2
17173;SDS011;8702;48.130;-1.696;2022-12-20T00:01:44;14.00;;;4.68;;
17173;SDS011;8702;48.130;-1.696;2022-12-20T00:04:11;14.38;;;4.82;;
17173;SDS011;8702;48.130;-1.696;2022-12-20T00:06:39;12.23;;;4.90;;
17173;SDS011;8702;48.130;-1.696;2022-12-20T00:09:06;9.88;;;4.47;;
17173;SDS011;8702;48.130;-1.696;2022-12-20T00:11:37;12.57;;;4.78;;
17173;SDS011;8702;48.130;-1.696;2022-12-20T00:14:05;16.23;;;4.80;;
17173;SDS011;8702;48.130;-1.696;2022-12-20T00:16:32;12.82;;;4.68;;
17173;SDS011;8702;48.130;-1.696;2022-12-20T00:19:00;13.52;;;4.82;;
17173;SDS011;8702;48.130;-1.696;2022-12-20T00:21:28;14.15;;;4.53;;
17173;SDS011;8702;48.130;-1.696;2022-12-20T00:23:57;14.77;;;5.32;;
17173;SDS011;8702;48.130;-1.696;2022-12-20T00:26:25;13.70;;;4.70;;
17173;SDS011;8702;48.130;-1.696;2022-12-20T00:28:53;11.88;;;4.65;;
17173;SDS011;8702;48.130;-1.696;2022-12-20T00:31:21;11.20;;;4.68;;
17173;SDS011;8702;48.130;-1.696;2022-12-20T00:33:50;15.23;;;4.70;;
17173;SDS011;8702;48.130;-1.696;2022-12-20T00:36:18;14.55;;;4.68;;
17173;SDS011;8702;48.130;-1.696;2022-12-20T00:38:45;12.47;;;4.77;;
17173;SDS011;8702;48.130;-1.696;2022-12-20T00:41:15;11.93;;;4.15;;
17173;SDS011;8702;48.130;-1.696;2022-12-20T00:43:43;12.52;;;4.63;;
17173;SDS011;8702;48.130;-1.696;2022-12-20T00:46:10;14.02;;;4.65;;
17173;SDS011;8702;48.130;-1.696;2022-12-20T00:48:38;10.43;;;4.30;;
17173;SDS011;8702;48.130;-1.696;2022-12-20T00:51:06;14.15;;;4.90;;
17173;SDS011;8702;48.130;-1.696;2022-12-20T00:53:34;13.02;;;4.65;;
17173;SDS011;8702;48.130;-1.696;2022-12-20T00:56:02;11.63;;;4.33;;
17173;SDS011;8702;48.130;-1.696;2022-12-20T00:58:32;13.43;;;4.95;;
17173;SDS011;8702;48.130;-1.696;2022-12-20T01:01:00;14.07;;;4.80;;
17173;SDS011;8702;48.130;-1.696;2022-12-20T01:03:27;9.52;;;4.68;;
17173;SDS011;8702;48.130;-1.696;2022-12-20T01:05:55;12.50;;;5.07;;
17173;SDS011;8702;48.130;-1.696;2022-12-20T01:08:24;14.05;;;4.75;;
17173;SDS011;8702;48.130;-1.696;2022-12-20T01:10:59;14.10;;;4.63;;
17173;SDS011;8702;48.130;-1.696;2022-12-20T01:13:27;14.07;;;4.78;;
17173;SDS011;8702;48.130;-1.696;2022-12-20T01:15:56;15.35;;;4.72;;
17173;SDS011;8702;48.130;-1.696;2022-12-20T01:18:28;12.88;;;4.38;;
17173;SDS011;8702;48.130;-1.696;2022-12-20T01:20:59;12.97;;;5.13;;
17173;SDS011;8702;48.130;-1.696;2022-12-20T01:23:27;16.48;;;5.15;;
17173;SDS011;8702;48.130;-1.696;2022-12-20T01:25:56;15.38;;;5.05;;
17173;SDS011;8702;48.130;-1.696;2022-12-20T01:28:23;13.20;;;4.90;;
17173;SDS011;8702;48.130;-1.696;2022-12-20T01:30:50;14.95;;;4.97;;
17173;SDS011;8702;48.130;-1.696;2022-12-20T01:33:19;15.10;;;5.07;;
17173;SDS011;8702;48.130;-1.696;2022-12-20T01:35:53;14.88;;;5.20;;
17173;SDS011;8702;48.130;-1.696;2022-12-20T01:38:22;15.48;;;5.15;;
17173;SDS011;8702;48.130;-1.696;2022-12-20T01:40:49;11.23;;;4.80;;
17173;SDS011;8702;48.130;-1.696;2022-12-20T01:43:16;15.93;;;5.20;;
17173;SDS011;8702;48.130;-1.696;2022-12-20T01:45:44;14.53;;;5.03;;
17173;SDS011;8702;48.130;-1.696;2022-12-20T01:48:12;15.48;;;5.20;;
17173;SDS011;8702;48.130;-1.696;2022-12-20T01:50:44;17.00;;;5.45;;
17173;SDS011;8702;48.130;-1.696;2022-12-20T01:53:12;16.77;;;5.47;;
17173;SDS011;8702;48.130;-1.696;2022-12-20T01:55:40;13.20;;;4.70;;
17173;SDS011;8702;48.130;-1.696;2022-12-20T01:58:08;15.38;;;4.78;;
17173;SDS011;8702;48.130;-1.696;2022-12-20T02:00:37;16.08;;;4.95;;
17173;SDS011;8702;48.130;-1.696;2022-12-20T02:03:04;14.15;;;5.25;;
17173;SDS011;8702;48.130;-1.696;2022-12-20T02:05:34;16.67;;;5.10;;
17173;SDS011;8702;48.130;-1.696;2022-12-20T02:08:04;15.77;;;5.30;;
17173;SDS011;8702;48.130;-1.696;2022-12-20T02:10:34;15.57;;;4.95;;
17173;SDS011;8702;48.130;-1.696;2022-12-20T02:13:14;13.40;;;4.90;;
17173;SDS011;8702;48.130;-1.696;2022-12-20T02:15:50;13.15;;;4.88;;
17173;SDS011;8702;48.130;-1.696;2022-12-20T02:18:21;15.13;;;5.15;;
17173;SDS011;8702;48.130;-1.696;2022-12-20T02:20:57;16.02;;;4.78;;
17173;SDS011;8702;48.130;-1.696;2022-12-20T02:26:48;13.25;;;4.72;;
17173;SDS011;8702;48.130;-1.696;2022-12-20T02:29:26;15.13;;;4.90;;
17173;SDS011;8702;48.130;-1.696;2022-12-20T02:32:01;11.27;;;4.22;;
17173;SDS011;8702;48.130;-1.696;2022-12-20T02:34:34;13.73;;;4.57;;
17173;SDS011;8702;48.130;-1.696;2022-12-20T02:37:02;14.82;;;4.90;;
17173;SDS011;8702;48.130;-1.696;2022-12-20T02:39:30;13.53;;;4.70;;
17173;SDS011;8702;48.130;-1.696;2022-12-20T02:41:58;12.05;;;4.35;;
17173;SDS011;8702;48.130;-1.696;2022-12-20T02:44:29;12.32;;;4.60;;
17173;SDS011;8702;48.130;-1.696;2022-12-20T02:47:20;14.23;;;4.67;;
17173;SDS011;8702;48.130;-1.696;2022-12-20T02:49:51;16.67;;;5.13;;
17173;SDS011;8702;48.130;-1.696;2022-12-20T02:52:21;16.13;;;5.15;;
17173;SDS011;8702;48.130;-1.696;2022-12-20T02:54:50;14.77;;;4.95;;
17173;SDS011;8702;48.130;-1.696;2022-12-20T02:57:19;13.47;;;4.57;;
17173;SDS011;8702;48.130;-1.696;2022-12-20T02:59:54;12.68;;;4.40;;
17173;SDS011;8702;48.130;-1.696;2022-12-20T03:02:27;13.27;;;4.82;;
17173;SDS011;8702;48.130;-1.696;2022-12-20T03:05:16;15.07;;;4.90;;
17173;SDS011;8702;48.130;-1.696;2022-12-20T03:07:43;13.73;;;4.30;;
17173;SDS011;8702;48.130;-1.696;2022-12-20T03:10:10;20.80;;;5.25;;
17173;SDS011;8702;48.130;-1.696;2022-12-20T03:12:37;15.17;;;4.80;;
17173;SDS011;8702;48.130;-1.696;2022-12-20T03:15:04;16.97;;;4.83;;
17173;SDS011;8702;48.130;-1.696;2022-12-20T03:17:34;14.70;;;4.75;;
17173;SDS011;8702;48.130;-1.696;2022-12-20T03:20:02;14.27;;;4.97;;
17173;SDS011;8702;48.130;-1.696;2022-12-20T03:22:30;13.15;;;4.22;;
17173;SDS011;8702;48.130;-1.696;2022-12-20T03:24:57;15.35;;;4.60;;
17173;SDS011;8702;48.130;-1.696;2022-12-20T03:27:24;12.02;;;4.50;;
17173;SDS011;8702;48.130;-1.696;2022-12-20T03:29:52;14.45;;;4.40;;
17173;SDS011;8702;48.130;-1.696;2022-12-20T03:32:19;14.15;;;4.35;;
17173;SDS011;8702;48.130;-1.696;2022-12-20T03:34:48;14.13;;;4.35;;
17173;SDS011;8702;48.130;-1.696;2022-12-20T03:37:16;14.18;;;4.22;;
17173;SDS011;8702;48.130;-1.696;2022-12-20T03:39:43;13.23;;;3.97;;
17173;SDS011;8702;48.130;-1.696;2022-12-20T03:42:10;9.40;;;3.05;;
17173;SDS011;8702;48.130;-1.696;2022-12-20T03:44:37;12.20;;;3.85;;
17173;SDS011;8702;48.130;-1.696;2022-12-20T03:47:04;11.77;;;3.97;;
17173;SDS011;8702;48.130;-1.696;2022-12-20T03:49:31;10.43;;;3.40;;
17173;SDS011;8702;48.130;-1.696;2022-12-20T03:52:01;13.75;;;3.50;;
17173;SDS011;8702;48.130;-1.696;2022-12-20T03:54:29;9.07;;;3.38;;
17173;SDS011;8702;48.130;-1.696;2022-12-20T03:56:56;12.38;;;3.90;;
17173;SDS011;8702;48.130;-1.696;2022-12-20T03:59:24;10.63;;;3.78;;
17173;SDS011;8702;48.130;-1.696;2022-12-20T04:01:51;13.13;;;3.55;;
17173;SDS011;8702;48.130;-1.696;2022-12-20T04:04:18;9.95;;;3.58;;
17173;SDS011;8702;48.130;-1.696;2022-12-20T04:06:45;11.93;;;3.90;;
17173;SDS011;8702;48.130;-1.696;2022-12-20T04:09:13;10.07;;;3.50;;
17173;SDS011;8702;48.130;-1.696;2022-12-20T04:11:41;9.05;;;3.67;;
17173;SDS011;8702;48.130;-1.696;2022-12-20T04:14:08;8.40;;;3.63;;
17173;SDS011;8702;48.130;-1.696;2022-12-20T04:16:35;10.07;;;3.55;;
17173;SDS011;8702;48.130;-1.696;2022-12-20T04:19:02;12.57;;;3.55;;
17173;SDS011;8702;48.130;-1.696;2022-12-20T04:21:30;11.90;;;3.60;;
17173;SDS011;8702;48.130;-1.696;2022-12-20T04:23:58;13.65;;;3.65;;
17173;SDS011;8702;48.130;-1.696;2022-12-20T04:26:28;11.88;;;3.88;;
17173;SDS011;8702;48.130;-1.696;2022-12-20T04:28:55;9.85;;;3.45;;
17173;SDS011;8702;48.130;-1.696;2022-12-20T04:31:22;8.73;;;3.17;;
17173;SDS011;8702;48.130;-1.696;2022-12-20T04:33:49;8.10;;;2.90;;
17173;SDS011;8702;48.130;-1.696;2022-12-20T04:36:16;12.10;;;3.63;;
17173;SDS011;8702;48.130;-1.696;2022-12-20T04:38:43;9.35;;;3.65;;
17173;SDS011;8702;48.130;-1.696;2022-12-20T04:41:10;7.22;;;3.20;;
17173;SDS011;8702;48.130;-1.696;2022-12-20T04:43:47;10.02;;;3.30;;
17173;SDS011;8702;48.130;-1.696;2022-12-20T04:46:15;8.63;;;3.40;;
17173;SDS011;8702;48.130;-1.696;2022-12-20T04:48:42;10.23;;;3.60;;
17173;SDS011;8702;48.130;-1.696;2022-12-20T04:51:09;12.40;;;3.92;;
17173;SDS011;8702;48.130;-1.696;2022-12-20T04:53:36;9.83;;;3.63;;
17173;SDS011;8702;48.130;-1.696;2022-12-20T04:56:12;10.13;;;3.40;;
17173;SDS011;8702;48.130;-1.696;2022-12-20T04:58:40;10.18;;;3.50;;
17173;SDS011;8702;48.130;-1.696;2022-12-20T05:01:09;8.80;;;3.37;;
17173;SDS011;8702;48.130;-1.696;2022-12-20T05:03:36;7.95;;;3.25;;
17173;SDS011;8702;48.130;-1.696;2022-12-20T05:06:03;9.20;;;3.58;;
17173;SDS011;8702;48.130;-1.696;2022-12-20T05:08:31;9.50;;;3.60;;
17173;SDS011;8702;48.130;-1.696;2022-12-20T05:10:59;6.93;;;3.03;;
17173;SDS011;8702;48.130;-1.696;2022-12-20T05:13:26;9.55;;;3.15;;
17173;SDS011;8702;48.130;-1.696;2022-12-20T05:15:54;8.93;;;3.00;;
17173;SDS011;8702;48.130;-1.696;2022-12-20T05:18:23;8.25;;;2.78;;
17173;SDS011;8702;48.130;-1.696;2022-12-20T05:20:53;7.80;;;3.20;;
17173;SDS011;8702;48.130;-1.696;2022-12-20T05:23:34;11.80;;;3.25;;
17173;SDS011;8702;48.130;-1.696;2022-12-20T05:26:19;7.93;;;3.08;;
17173;SDS011;8702;48.130;-1.696;2022-12-20T05:28:47;8.70;;;3.28;;
17173;SDS011;8702;48.130;-1.696;2022-12-20T05:31:14;7.63;;;3.33;;
17173;SDS011;8702;48.130;-1.696;2022-12-20T05:33:42;8.23;;;3.20;;
17173;SDS011;8702;48.130;-1.696;2022-12-20T05:36:09;7.00;;;3.08;;
17173;SDS011;8702;48.130;-1.696;2022-12-20T05:38:36;8.25;;;3.70;;
17173;SDS011;8702;48.130;-1.696;2022-12-20T05:41:03;7.32;;;3.05;;
17173;SDS011;8702;48.130;-1.696;2022-12-20T05:43:30;9.47;;;3.30;;
17173;SDS011;8702;48.130;-1.696;2022-12-20T05:45:57;7.13;;;3.47;;
17173;SDS011;8702;48.130;-1.696;2022-12-20T05:48:24;8.32;;;3.42;;
17173;SDS011;8702;48.130;-1.696;2022-12-20T05:50:53;8.25;;;3.38;;
17173;SDS011;8702;48.130;-1.696;2022-12-20T05:53:20;8.55;;;3.40;;
17173;SDS011;8702;48.130;-1.696;2022-12-20T05:55:47;6.97;;;3.03;;
17173;SDS011;8702;48.130;-1.696;2022-12-20T05:58:16;5.45;;;3.22;;
17173;SDS011;8702;48.130;-1.696;2022-12-20T06:00:43;7.78;;;3.53;;
17173;SDS011;8702;48.130;-1.696;2022-12-20T06:03:11;12.07;;;3.38;;
17173;SDS011;8702;48.130;-1.696;2022-12-20T06:05:39;6.35;;;2.95;;
17173;SDS011;8702;48.130;-1.696;2022-12-20T06:08:09;6.57;;;2.97;;
17173;SDS011;8702;48.130;-1.696;2022-12-20T06:10:37;7.03;;;3.10;;
17173;SDS011;8702;48.130;-1.696;2022-12-20T06:13:05;6.25;;;3.08;;
17173;SDS011;8702;48.130;-1.696;2022-12-20T06:15:33;7.05;;;3.10;;
17173;SDS011;8702;48.130;-1.696;2022-12-20T06:18:00;7.97;;;3.40;;
17173;SDS011;8702;48.130;-1.696;2022-12-20T06:20:27;10.00;;;3.30;;
17173;SDS011;8702;48.130;-1.696;2022-12-20T06:22:55;9.65;;;3.50;;
17173;SDS011;8702;48.130;-1.696;2022-12-20T06:25:23;7.43;;;3.10;;
17173;SDS011;8702;48.130;-1.696;2022-12-20T06:27:50;7.45;;;3.42;;
17173;SDS011;8702;48.130;-1.696;2022-12-20T06:30:17;5.60;;;2.92;;
17173;SDS011;8702;48.130;-1.696;2022-12-20T06:32:45;8.25;;;2.83;;
17173;SDS011;8702;48.130;-1.696;2022-12-20T06:35:12;7.78;;;3.05;;
17173;SDS011;8702;48.130;-1.696;2022-12-20T06:37:39;5.53;;;2.88;;
17173;SDS011;8702;48.130;-1.696;2022-12-20T06:40:07;8.25;;;3.33;;
17173;SDS011;8702;48.130;-1.696;2022-12-20T06:42:37;7.38;;;3.45;;
17173;SDS011;8702;48.130;-1.696;2022-12-20T06:45:04;6.40;;;2.80;;
17173;SDS011;8702;48.130;-1.696;2022-12-20T06:47:32;7.03;;;2.83;;
17173;SDS011;8702;48.130;-1.696;2022-12-20T06:49:59;6.57;;;2.92;;
17173;SDS011;8702;48.130;-1.696;2022-12-20T06:52:26;6.18;;;2.58;;
17173;SDS011;8702;48.130;-1.696;2022-12-20T06:54:52;5.80;;;2.60;;
17173;SDS011;8702;48.130;-1.696;2022-12-20T06:57:19;5.78;;;2.60;;
17173;SDS011;8702;48.130;-1.696;2022-12-20T06:59:48;6.97;;;3.00;;
17173;SDS011;8702;48.130;-1.696;2022-12-20T07:02:15;7.97;;;2.90;;
17173;SDS011;8702;48.130;-1.696;2022-12-20T07:04:42;4.82;;;2.53;;
17173;SDS011;8702;48.130;-1.696;2022-12-20T07:07:10;6.47;;;2.75;;
17173;SDS011;8702;48.130;-1.696;2022-12-20T07:09:37;7.73;;;3.03;;
17173;SDS011;8702;48.130;-1.696;2022-12-20T07:12:05;6.03;;;2.67;;
17173;SDS011;8702;48.130;-1.696;2022-12-20T07:14:33;6.05;;;2.70;;
17173;SDS011;8702;48.130;-1.696;2022-12-20T07:17:01;6.88;;;3.00;;
17173;SDS011;8702;48.130;-1.696;2022-12-20T07:19:28;4.20;;;2.80;;
17173;SDS011;8702;48.130;-1.696;2022-12-20T07:21:55;5.18;;;2.70;;
17173;SDS011;8702;48.130;-1.696;2022-12-20T07:24:22;4.68;;;2.63;;
17173;SDS011;8702;48.130;-1.696;2022-12-20T07:26:49;3.93;;;2.40;;
17173;SDS011;8702;48.130;-1.696;2022-12-20T07:29:16;5.20;;;2.57;;
17173;SDS011;8702;48.130;-1.696;2022-12-20T07:31:43;6.72;;;2.58;;
17173;SDS011;8702;48.130;-1.696;2022-12-20T07:34:11;5.40;;;2.63;;
17173;SDS011;8702;48.130;-1.696;2022-12-20T07:36:38;9.02;;;3.15;;
17173;SDS011;8702;48.130;-1.696;2022-12-20T07:39:05;7.20;;;3.10;;
17173;SDS011;8702;48.130;-1.696;2022-12-20T07:41:33;6.93;;;3.03;;
17173;SDS011;8702;48.130;-1.696;2022-12-20T07:44:00;5.88;;;3.00;;
17173;SDS011;8702;48.130;-1.696;2022-12-20T07:46:27;5.93;;;2.95;;
17173;SDS011;8702;48.130;-1.696;2022-12-20T07:48:54;5.90;;;3.08;;
17173;SDS011;8702;48.130;-1.696;2022-12-20T07:51:23;7.13;;;3.13;;
17173;SDS011;8702;48.130;-1.696;2022-12-20T07:53:55;6.93;;;3.10;;
17173;SDS011;8702;48.130;-1.696;2022-12-20T07:56:26;7.47;;;3.15;;
17173;SDS011;8702;48.130;-1.696;2022-12-20T07:58:55;6.17;;;2.90;;
17173;SDS011;8702;48.130;-1.696;2022-12-20T08:01:26;6.10;;;3.40;;
17173;SDS011;8702;48.130;-1.696;2022-12-20T08:03:55;8.65;;;3.22;;
17173;SDS011;8702;48.130;-1.696;2022-12-20T08:06:29;6.30;;;2.95;;
17173;SDS011;8702;48.130;-1.696;2022-12-20T08:08:57;7.05;;;3.33;;
17173;SDS011;8702;48.130;-1.696;2022-12-20T08:11:28;6.57;;;3.03;;
17173;SDS011;8702;48.130;-1.696;2022-12-20T08:13:55;6.75;;;3.03;;
17173;SDS011;8702;48.130;-1.696;2022-12-20T08:16:23;6.07;;;3.28;;
17173;SDS011;8702;48.130;-1.696;2022-12-20T08:18:50;5.70;;;3.25;;
17173;SDS011;8702;48.130;-1.696;2022-12-20T08:21:17;7.15;;;3.03;;
17173;SDS011;8702;48.130;-1.696;2022-12-20T08:23:45;6.65;;;3.20;;
17173;SDS011;8702;48.130;-1.696;2022-12-20T08:26:12;7.90;;;3.35;;
17173;SDS011;8702;48.130;-1.696;2022-12-20T08:28:40;6.90;;;3.35;;
17173;SDS011;8702;48.130;-1.696;2022-12-20T08:31:08;7.47;;;3.17;;
17173;SDS011;8702;48.130;-1.696;2022-12-20T08:33:36;6.15;;;2.95;;
17173;SDS011;8702;48.130;-1.696;2022-12-20T08:36:05;5.55;;;3.17;;
17173;SDS011;8702;48.130;-1.696;2022-12-20T08:38:33;7.90;;;3.70;;
17173;SDS011;8702;48.130;-1.696;2022-12-20T08:41:02;6.82;;;3.40;;
17173;SDS011;8702;48.130;-1.696;2022-12-20T08:43:30;9.05;;;3.70;;
17173;SDS011;8702;48.130;-1.696;2022-12-20T08:45:58;9.23;;;3.55;;
17173;SDS011;8702;48.130;-1.696;2022-12-20T08:48:25;7.47;;;3.50;;
17173;SDS011;8702;48.130;-1.696;2022-12-20T08:50:53;7.70;;;3.60;;
17173;SDS011;8702;48.130;-1.696;2022-12-20T08:53:21;9.13;;;3.85;;
17173;SDS011;8702;48.130;-1.696;2022-12-20T08:55:48;9.43;;;3.80;;
17173;SDS011;8702;48.130;-1.696;2022-12-20T08:58:16;10.48;;;4.28;;
17173;SDS011;8702;48.130;-1.696;2022-12-20T09:00:43;10.45;;;3.80;;
17173;SDS011;8702;48.130;-1.696;2022-12-20T09:03:10;14.02;;;4.53;;
17173;SDS011;8702;48.130;-1.696;2022-12-20T09:05:42;11.55;;;4.47;;
17173;SDS011;8702;48.130;-1.696;2022-12-20T09:08:10;9.77;;;4.35;;
17173;SDS011;8702;48.130;-1.696;2022-12-20T09:10:37;12.77;;;4.78;;
17173;SDS011;8702;48.130;-1.696;2022-12-20T09:13:04;12.00;;;4.60;;
17173;SDS011;8702;48.130;-1.696;2022-12-20T09:15:33;11.73;;;4.95;;
17173;SDS011;8702;48.130;-1.696;2022-12-20T09:18:00;11.57;;;4.90;;
17173;SDS011;8702;48.130;-1.696;2022-12-20T09:20:28;12.38;;;5.25;;
17173;SDS011;8702;48.130;-1.696;2022-12-20T09:22:55;16.75;;;5.80;;
17173;SDS011;8702;48.130;-1.696;2022-12-20T09:25:23;16.40;;;6.55;;
17173;SDS011;8702;48.130;-1.696;2022-12-20T09:27:50;20.00;;;6.97;;
17173;SDS011;8702;48.130;-1.696;2022-12-20T09:30:17;17.40;;;6.82;;
17173;SDS011;8702;48.130;-1.696;2022-12-20T09:32:46;20.43;;;7.70;;
17173;SDS011;8702;48.130;-1.696;2022-12-20T09:35:13;19.98;;;8.25;;
17173;SDS011;8702;48.130;-1.696;2022-12-20T09:37:40;23.60;;;8.07;;
17173;SDS011;8702;48.130;-1.696;2022-12-20T09:40:09;19.48;;;8.15;;
17173;SDS011;8702;48.130;-1.696;2022-12-20T09:42:42;22.45;;;7.90;;
17173;SDS011;8702;48.130;-1.696;2022-12-20T09:45:10;23.35;;;7.97;;
17173;SDS011;8702;48.130;-1.696;2022-12-20T09:47:46;19.42;;;7.60;;
17173;SDS011;8702;48.130;-1.696;2022-12-20T09:50:13;21.88;;;7.43;;
17173;SDS011;8702;48.130;-1.696;2022-12-20T09:52:46;22.33;;;6.90;;
17173;SDS011;8702;48.130;-1.696;2022-12-20T09:55:21;17.98;;;7.00;;
17173;SDS011;8702;48.130;-1.696;2022-12-20T09:57:56;19.13;;;6.47;;
17173;SDS011;8702;48.130;-1.696;2022-12-20T10:00:35;19.47;;;6.03;;
17173;SDS011;8702;48.130;-1.696;2022-12-20T10:03:10;18.40;;;5.90;;
17173;SDS011;8702;48.130;-1.696;2022-12-20T10:05:45;12.35;;;5.00;;
17173;SDS011;8702;48.130;-1.696;2022-12-20T10:08:23;15.23;;;5.82;;
17173;SDS011;8702;48.130;-1.696;2022-12-20T10:11:03;13.20;;;5.13;;
17173;SDS011;8702;48.130;-1.696;2022-12-20T10:13:40;12.82;;;4.70;;
17173;SDS011;8702;48.130;-1.696;2022-12-20T10:16:27;11.85;;;4.57;;
17173;SDS011;8702;48.130;-1.696;2022-12-20T10:19:07;10.60;;;4.18;;
17173;SDS011;8702;48.130;-1.696;2022-12-20T10:21:48;8.32;;;3.92;;
17173;SDS011;8702;48.130;-1.696;2022-12-20T10:24:20;9.25;;;4.00;;
17173;SDS011;8702;48.130;-1.696;2022-12-20T10:26:52;9.80;;;4.15;;
17173;SDS011;8702;48.130;-1.696;2022-12-20T10:29:20;9.20;;;3.80;;
17173;SDS011;8702;48.130;-1.696;2022-12-20T10:31:48;8.90;;;3.90;;
17173;SDS011;8702;48.130;-1.696;2022-12-20T10:34:18;8.88;;;3.70;;
17173;SDS011;8702;48.130;-1.696;2022-12-20T10:36:45;7.00;;;3.45;;
17173;SDS011;8702;48.130;-1.696;2022-12-20T10:39:39;6.47;;;3.50;;
17173;SDS011;8702;48.130;-1.696;2022-12-20T10:42:18;6.50;;;3.33;;
17173;SDS011;8702;48.130;-1.696;2022-12-20T10:44:51;7.07;;;3.43;;
17173;SDS011;8702;48.130;-1.696;2022-12-20T10:47:23;7.60;;;3.70;;
17173;SDS011;8702;48.130;-1.696;2022-12-20T10:50:08;7.63;;;3.80;;
17173;SDS011;8702;48.130;-1.696;2022-12-20T10:52:39;6.20;;;3.35;;
17173;SDS011;8702;48.130;-1.696;2022-12-20T10:58:01;6.65;;;3.90;;
17173;SDS011;8702;48.130;-1.696;2022-12-20T11:00:31;11.47;;;4.10;;
17173;SDS011;8702;48.130;-1.696;2022-12-20T11:03:08;8.60;;;4.10;;
17173;SDS011;8702;48.130;-1.696;2022-12-20T11:05:39;9.43;;;3.90;;
17173;SDS011;8702;48.130;-1.696;2022-12-20T11:08:08;8.93;;;4.23;;
17173;SDS011;8702;48.130;-1.696;2022-12-20T11:10:40;8.38;;;4.32;;
17173;SDS011;8702;48.130;-1.696;2022-12-20T11:13:17;10.87;;;4.50;;
17173;SDS011;8702;48.130;-1.696;2022-12-20T11:15:47;8.15;;;4.10;;
17173;SDS011;8702;48.130;-1.696;2022-12-20T11:18:18;8.57;;;4.32;;
17173;SDS011;8702;48.130;-1.696;2022-12-20T11:20:51;7.18;;;4.03;;
17173;SDS011;8702;48.130;-1.696;2022-12-20T11:23:25;11.70;;;4.70;;
17173;SDS011;8702;48.130;-1.696;2022-12-20T11:26:05;10.73;;;4.70;;
17173;SDS011;8702;48.130;-1.696;2022-12-20T11:28:38;9.60;;;4.50;;
17173;SDS011;8702;48.130;-1.696;2022-12-20T11:31:14;9.23;;;4.40;;
17173;SDS011;8702;48.130;-1.696;2022-12-20T11:33:48;7.65;;;4.35;;
17173;SDS011;8702;48.130;-1.696;2022-12-20T11:36:27;9.52;;;4.30;;
17173;SDS011;8702;48.130;-1.696;2022-12-20T11:39:04;9.18;;;4.28;;
17173;SDS011;8702;48.130;-1.696;2022-12-20T11:41:42;11.88;;;4.68;;
17173;SDS011;8702;48.130;-1.696;2022-12-20T11:44:16;9.00;;;4.47;;
17173;SDS011;8702;48.130;-1.696;2022-12-20T11:46:55;9.48;;;4.20;;
17173;SDS011;8702;48.130;-1.696;2022-12-20T11:52:42;9.40;;;4.10;;
17173;SDS011;8702;48.130;-1.696;2022-12-20T11:55:16;7.82;;;3.70;;
17173;SDS011;8702;48.130;-1.696;2022-12-20T11:57:47;7.50;;;4.25;;
17173;SDS011;8702;48.130;-1.696;2022-12-20T12:00:21;7.05;;;3.97;;
17173;SDS011;8702;48.130;-1.696;2022-12-20T12:02:50;11.20;;;4.17;;
17173;SDS011;8702;48.130;-1.696;2022-12-20T12:05:23;8.43;;;4.45;;
17173;SDS011;8702;48.130;-1.696;2022-12-20T12:07:57;9.05;;;3.85;;
17173;SDS011;8702;48.130;-1.696;2022-12-20T12:10:29;8.63;;;3.70;;
17173;SDS011;8702;48.130;-1.696;2022-12-20T12:13:02;7.57;;;3.80;;
17173;SDS011;8702;48.130;-1.696;2022-12-20T12:15:33;7.55;;;4.10;;
17173;SDS011;8702;48.130;-1.696;2022-12-20T12:18:06;6.60;;;3.85;;
17173;SDS011;8702;48.130;-1.696;2022-12-20T12:20:43;6.47;;;3.63;;
17173;SDS011;8702;48.130;-1.696;2022-12-20T12:23:18;7.95;;;3.35;;
17173;SDS011;8702;48.130;-1.696;2022-12-20T12:25:50;7.45;;;3.83;;
17173;SDS011;8702;48.130;-1.696;2022-12-20T12:28:17;6.82;;;3.75;;
17173;SDS011;8702;48.130;-1.696;2022-12-20T12:30:46;5.65;;;3.40;;
17173;SDS011;8702;48.130;-1.696;2022-12-20T12:33:19;4.32;;;3.20;;
17173;SDS011;8702;48.130;-1.696;2022-12-20T12:35:55;5.97;;;3.13;;
17173;SDS011;8702;48.130;-1.696;2022-12-20T12:38:47;5.45;;;3.40;;
17173;SDS011;8702;48.130;-1.696;2022-12-20T12:41:35;5.73;;;3.00;;
17173;SDS011;8702;48.130;-1.696;2022-12-20T12:44:22;6.40;;;3.08;;
17173;SDS011;8702;48.130;-1.696;2022-12-20T12:47:05;4.30;;;2.97;;
17173;SDS011;8702;48.130;-1.696;2022-12-20T12:49:37;5.38;;;3.08;;
17173;SDS011;8702;48.130;-1.696;2022-12-20T12:52:06;4.50;;;2.95;;
17173;SDS011;8702;48.130;-1.696;2022-12-20T12:54:35;4.75;;;2.97;;
17173;SDS011;8702;48.130;-1.696;2022-12-20T12:57:06;5.28;;;3.30;;
17173;SDS011;8702;48.130;-1.696;2022-12-20T12:59:42;5.15;;;2.95;;
17173;SDS011;8702;48.130;-1.696;2022-12-20T13:02:23;4.25;;;3.22;;
17173;SDS011;8702;48.130;-1.696;2022-12-20T13:04:52;12.15;;;8.13;;
17173;SDS011;8702;48.130;-1.696;2022-12-20T13:07:25;17.77;;;11.40;;
17173;SDS011;8702;48.130;-1.696;2022-12-20T13:09:54;17.00;;;12.73;;
17173;SDS011;8702;48.130;-1.696;2022-12-20T13:18:29;17.45;;;13.20;;
17173;SDS011;8702;48.130;-1.696;2022-12-20T13:21:27;19.38;;;14.15;;
17173;SDS011;8702;48.130;-1.696;2022-12-20T13:32:55;1.83;;;1.65;;
17173;SDS011;8702;48.130;-1.696;2022-12-20T13:41:32;1.70;;;1.13;;
17173;SDS011;8702;48.130;-1.696;2022-12-20T13:44:08;1.70;;;1.20;;
17173;SDS011;8702;48.130;-1.696;2022-12-20T13:46:39;1.70;;;1.17;;
17173;SDS011;8702;48.130;-1.696;2022-12-20T13:49:10;1.33;;;1.13;;
17173;SDS011;8702;48.130;-1.696;2022-12-20T13:51:40;1.00;;;1.00;;
17173;SDS011;8702;48.130;-1.696;2022-12-20T13:54:11;1.30;;;1.08;;
17173;SDS011;8702;48.130;-1.696;2022-12-20T13:56:44;1.45;;;1.00;;
17173;SDS011;8702;48.130;-1.696;2022-12-20T13:59:15;1.88;;;0.90;;
17173;SDS011;8702;48.130;-1.696;2022-12-20T14:01:51;1.00;;;0.75;;
17173;SDS011;8702;48.130;-1.696;2022-12-20T14:04:20;1.00;;;0.88;;
17173;SDS011;8702;48.130;-1.696;2022-12-20T14:06:50;1.70;;;0.82;;
17173;SDS011;8702;48.130;-1.696;2022-12-20T14:09:27;1.08;;;0.70;;
17173;SDS011;8702;48.130;-1.696;2022-12-20T14:12:01;1.10;;;1.00;;
17173;SDS011;8702;48.130;-1.696;2022-12-20T14:14:33;2.80;;;1.20;;
17173;SDS011;8702;48.130;-1.696;2022-12-20T14:17:15;1.50;;;0.88;;
17173;SDS011;8702;48.130;-1.696;2022-12-20T14:19:42;1.40;;;0.95;;
17173;SDS011;8702;48.130;-1.696;2022-12-20T14:22:10;0.70;;;0.70;;
17173;SDS011;8702;48.130;-1.696;2022-12-20T14:24:38;1.30;;;0.90;;
17173;SDS011;8702;48.130;-1.696;2022-12-20T14:27:07;0.95;;;0.80;;
17173;SDS011;8702;48.130;-1.696;2022-12-20T14:29:38;1.00;;;0.90;;
17173;SDS011;8702;48.130;-1.696;2022-12-20T14:32:05;1.60;;;0.80;;
17173;SDS011;8702;48.130;-1.696;2022-12-20T14:34:44;1.58;;;0.90;;
17173;SDS011;8702;48.130;-1.696;2022-12-20T14:37:31;1.52;;;0.98;;
17173;SDS011;8702;48.130;-1.696;2022-12-20T14:40:01;1.40;;;1.02;;
17173;SDS011;8702;48.130;-1.696;2022-12-20T14:42:39;1.48;;;1.00;;
17173;SDS011;8702;48.130;-1.696;2022-12-20T14:45:16;1.50;;;1.02;;
17173;SDS011;8702;48.130;-1.696;2022-12-20T14:47:49;1.97;;;1.30;;
17173;SDS011;8702;48.130;-1.696;2022-12-20T14:50:23;2.90;;;1.20;;
17173;SDS011;8702;48.130;-1.696;2022-12-20T14:52:53;1.25;;;1.13;;
17173;SDS011;8702;48.130;-1.696;2022-12-20T14:55:21;2.50;;;1.20;;
17173;SDS011;8702;48.130;-1.696;2022-12-20T14:57:50;1.48;;;1.00;;
17173;SDS011;8702;48.130;-1.696;2022-12-20T15:00:21;1.35;;;1.00;;
17173;SDS011;8702;48.130;-1.696;2022-12-20T15:02:50;4.07;;;1.10;;
17173;SDS011;8702;48.130;-1.696;2022-12-20T15:05:44;1.40;;;0.90;;
17173;SDS011;8702;48.130;-1.696;2022-12-20T15:08:12;2.72;;;1.05;;
17173;SDS011;8702;48.130;-1.696;2022-12-20T15:10:40;2.15;;;1.10;;
17173;SDS011;8702;48.130;-1.696;2022-12-20T15:13:11;2.28;;;1.05;;
17173;SDS011;8702;48.130;-1.696;2022-12-20T15:15:41;1.70;;;0.97;;
17173;SDS011;8702;48.130;-1.696;2022-12-20T15:18:12;1.48;;;1.08;;
17173;SDS011;8702;48.130;-1.696;2022-12-20T15:20:40;2.58;;;1.10;;
17173;SDS011;8702;48.130;-1.696;2022-12-20T15:23:13;2.38;;;1.30;;
17173;SDS011;8702;48.130;-1.696;2022-12-20T15:25:41;2.47;;;1.30;;
17173;SDS011;8702;48.130;-1.696;2022-12-20T15:28:13;3.42;;;1.35;;
17173;SDS011;8702;48.130;-1.696;2022-12-20T15:30:43;3.38;;;1.40;;
17173;SDS011;8702;48.130;-1.696;2022-12-20T15:33:15;3.47;;;1.30;;